Fairfield, Iowa
Current Conditions -  °F | °C
As of 8:15 AM on Thursday 18 Dec 2014 (Local Time) from KFFL Reporting Station
Unknown Precip Unknown Precip  
Wind Chill: 23°   Ceiling: Unl
Heat Index: 23°   Visibility: 8mi
Dew Point: 18°   Wind: 0mph
Humidity: 80%   Direction: NA
Pressure: 30.3"   Gusts: NA
Location:  41.01°N, 91.96°W
Report Text: KFFL 181415Z AUTO 00000KT 8SM -UP FEW027 FEW035 SCT043 M05/M08 A3030 RMK AO2
Loading
Personal Weather Stations






























Interactive Weather Map New forecast layout! Learn more

10-Day Weather Forecast

Advertisements
Track Severe Weather on mobile